createdAt,value
2023-05-15T00:00:26.652Z,80.89
2023-05-15T00:03:50.098Z,80.17
2023-05-15T00:06:53.815Z,79.31
2023-05-15T00:09:57.579Z,76.40
2023-05-15T00:13:00.531Z,75.37
2023-05-15T00:16:04.740Z,77.24
2023-05-15T00:19:07.530Z,75.47
2023-05-15T00:22:09.915Z,73.06
2023-05-15T00:25:12.771Z,74.04
2023-05-15T00:28:14.975Z,76.20
2023-05-15T00:31:17.932Z,75.68
2023-05-15T00:34:23.066Z,75.14
2023-05-15T00:37:25.747Z,76.74
2023-05-15T00:40:29.268Z,79.58
2023-05-15T00:43:33.526Z,75.26
2023-05-15T00:46:36.687Z,74.54
2023-05-15T00:49:40.525Z,74.31
2023-05-15T00:52:43.708Z,75.87
2023-05-15T00:55:47.368Z,77.01
2023-05-15T00:58:50.894Z,78.14
2023-05-15T01:01:54.719Z,78.36
2023-05-15T01:04:57.554Z,78.67
2023-05-15T01:08:29.879Z,80.09
2023-05-15T01:11:36.756Z,82.72
2023-05-15T01:14:40.835Z,83.41
2023-05-15T01:17:42.929Z,83.51
2023-05-15T01:21:02.620Z,82.78
2023-05-15T01:24:39.917Z,82.43
2023-05-15T01:27:50.894Z,85.81
2023-05-15T01:30:57.026Z,82.64
2023-05-15T01:34:04.162Z,78.72
2023-05-15T01:37:10.125Z,76.96
2023-05-15T01:40:20.170Z,75.51
2023-05-15T01:43:24.692Z,76.49
2023-05-15T01:46:31.448Z,77.90
2023-05-15T01:49:35.395Z,79.56
2023-05-15T01:52:42.596Z,76.09
2023-05-15T01:55:45.891Z,76.84
2023-05-15T01:58:50.856Z,77.32
2023-05-15T02:01:53.792Z,79.51
2023-05-15T02:04:57.771Z,80.56
2023-05-15T02:08:02.778Z,81.98
2023-05-15T02:11:06.156Z,84.17
2023-05-15T02:14:11.338Z,85.18
2023-05-15T02:17:13.922Z,85.40
2023-05-15T02:20:16.204Z,86.08
2023-05-15T02:23:20.976Z,87.21
2023-05-15T02:27:00.163Z,87.28
2023-05-15T02:30:35.261Z,88.07
2023-05-15T02:33:49.860Z,87.81
2023-05-15T02:36:55.084Z,88.00
2023-05-15T02:40:00.353Z,88.66
2023-05-15T02:43:05.427Z,88.56
2023-05-15T02:46:09.613Z,88.21
2023-05-15T02:49:13.987Z,87.70
2023-05-15T02:52:16.516Z,87.93
2023-05-15T02:55:19.404Z,87.93
2023-05-15T02:58:21.528Z,87.64
2023-05-15T03:01:24.543Z,87.64
2023-05-15T03:04:26.939Z,87.06
2023-05-15T03:07:29.491Z,86.39
2023-05-15T03:10:32.045Z,85.74
2023-05-15T03:13:34.844Z,84.82
2023-05-15T03:16:39.163Z,85.06
2023-05-15T03:19:42.012Z,85.37
2023-05-15T03:22:44.283Z,85.03
2023-05-15T03:25:46.984Z,84.81
2023-05-15T03:28:49.597Z,84.32
2023-05-15T03:31:52.208Z,83.94
2023-05-15T03:34:55.043Z,84.31
2023-05-15T03:37:57.777Z,83.85
2023-05-15T03:41:00.165Z,84.48
2023-05-15T03:44:03.009Z,84.95
2023-05-15T03:47:08.617Z,85.00
2023-05-15T03:50:14.437Z,83.77
2023-05-15T03:53:16.800Z,83.07
2023-05-15T03:56:19.447Z,83.05
2023-05-15T03:59:22.756Z,82.86
2023-05-15T04:02:25.602Z,82.40
2023-05-15T04:05:28.369Z,83.53
2023-05-15T04:08:31.394Z,85.81
2023-05-15T04:11:35.161Z,86.64
2023-05-15T04:14:38.070Z,86.20
2023-05-15T04:17:40.633Z,86.08
2023-05-15T04:20:43.909Z,86.25
2023-05-15T04:23:46.093Z,86.01
2023-05-15T04:26:49.108Z,85.98
2023-05-15T04:29:51.388Z,86.06
2023-05-15T04:32:54.625Z,86.14
2023-05-15T04:35:56.944Z,86.12
2023-05-15T04:38:59.708Z,85.60
2023-05-15T04:42:02.643Z,85.78
2023-05-15T04:45:06.272Z,86.49
2023-05-15T04:48:08.953Z,85.23
2023-05-15T04:51:12.736Z,84.45
2023-05-15T04:54:15.819Z,84.15
2023-05-15T04:57:19.770Z,84.87
2023-05-15T05:00:23.838Z,85.84
2023-05-15T05:03:26.810Z,86.06
2023-05-15T05:06:31.878Z,86.43
2023-05-15T05:09:35.364Z,86.86
2023-05-15T05:12:37.682Z,86.86
2023-05-15T05:15:42.798Z,86.59
2023-05-15T05:18:45.995Z,86.20
2023-05-15T05:21:49.064Z,84.95
2023-05-15T05:24:51.839Z,84.64
2023-05-15T05:27:54.738Z,84.22
2023-05-15T05:30:57.303Z,84.12
2023-05-15T05:34:02.166Z,84.30
2023-05-15T05:37:04.456Z,82.63
2023-05-15T05:40:08.882Z,80.83
2023-05-15T05:43:12.539Z,79.94
2023-05-15T05:46:15.497Z,81.81
2023-05-15T05:49:18.323Z,84.32
2023-05-15T05:52:21.029Z,84.25
2023-05-15T05:55:24.261Z,85.72
2023-05-15T05:58:27.601Z,85.72
2023-05-15T06:01:30.335Z,86.02
2023-05-15T06:04:34.699Z,86.01
2023-05-15T06:07:37.350Z,85.49
2023-05-15T06:10:42.715Z,84.01
2023-05-15T06:13:46.845Z,84.53
2023-05-15T06:16:50.677Z,84.28
2023-05-15T06:19:53.029Z,84.61
2023-05-15T06:22:56.233Z,84.56
2023-05-15T06:25:59.819Z,84.53
2023-05-15T06:29:05.839Z,85.31
2023-05-15T06:32:11.539Z,84.86
2023-05-15T06:35:14.483Z,85.53
2023-05-15T06:38:17.313Z,85.77
2023-05-15T06:41:19.963Z,86.16
2023-05-15T06:44:23.684Z,86.82
2023-05-15T06:47:27.267Z,86.45
2023-05-15T06:50:29.484Z,86.29
2023-05-15T06:53:33.539Z,86.02
2023-05-15T06:56:37.423Z,86.35
2023-05-15T06:59:40.371Z,86.46
2023-05-15T07:02:44.303Z,86.51
2023-05-15T07:05:47.282Z,86.22
2023-05-15T07:08:49.887Z,86.74
2023-05-15T07:11:52.662Z,86.09
2023-05-15T07:14:55.042Z,85.74
2023-05-15T07:17:58.395Z,84.97
2023-05-15T07:21:01.415Z,84.09
2023-05-15T07:24:04.792Z,85.20
2023-05-15T07:27:07.043Z,85.82
2023-05-15T07:30:10.526Z,85.86
2023-05-15T07:33:13.713Z,85.95
2023-05-15T07:36:18.025Z,85.86
2023-05-15T07:39:21.107Z,85.67
2023-05-15T07:42:26.060Z,86.14
2023-05-15T07:45:29.877Z,86.61
2023-05-15T07:48:33.109Z,85.57
2023-05-15T07:51:36.341Z,85.87
2023-05-15T07:54:42.450Z,85.92
2023-05-15T08:00:57.115Z,86.38
2023-05-15T08:03:59.638Z,84.19
2023-05-15T08:07:04.922Z,83.38
2023-05-15T08:10:08.119Z,84.42
2023-05-15T08:13:10.745Z,85.48
2023-05-15T08:16:13.073Z,85.72
2023-05-15T08:19:17.291Z,86.14
2023-05-15T08:22:19.540Z,86.00
2023-05-15T08:25:24.749Z,86.38
2023-05-15T08:28:27.186Z,86.52
2023-05-15T08:31:29.872Z,86.00
2023-05-15T08:34:32.515Z,81.90
2023-05-15T08:37:35.415Z,79.66
2023-05-15T08:40:39.754Z,80.44
2023-05-15T08:43:44.619Z,82.48
2023-05-15T08:46:48.213Z,83.42
2023-05-15T08:50:06.550Z,81.43
2023-05-15T08:53:09.636Z,82.49
2023-05-15T08:56:13.424Z,82.14
2023-05-15T08:59:16.107Z,83.55
2023-05-15T09:02:20.417Z,82.81
2023-05-15T09:05:22.869Z,83.27
2023-05-15T09:08:28.266Z,84.10
2023-05-15T09:11:32.245Z,82.79
2023-05-15T09:14:35.070Z,81.06
2023-05-15T09:17:37.724Z,81.99
2023-05-15T09:20:41.295Z,81.49
2023-05-15T09:23:43.788Z,82.24
2023-05-15T09:26:47.577Z,82.88
2023-05-15T09:29:54.893Z,77.94
2023-05-15T09:33:04.092Z,78.60
2023-05-15T09:36:08.312Z,80.01
2023-05-15T09:39:11.816Z,80.60
2023-05-15T09:42:16.054Z,81.70
2023-05-15T09:45:19.622Z,82.02
2023-05-15T09:48:22.433Z,82.58
2023-05-15T09:51:25.614Z,82.61
2023-05-15T09:54:31.344Z,80.61
2023-05-15T09:57:33.950Z,80.37
2023-05-15T10:00:36.806Z,81.36
2023-05-15T10:04:02.824Z,82.19
2023-05-15T10:07:09.718Z,82.44
2023-05-15T10:10:12.988Z,82.37
2023-05-15T10:13:15.419Z,82.71
2023-05-15T10:16:21.903Z,82.64
2023-05-15T10:19:27.223Z,83.01
2023-05-15T10:22:36.519Z,82.67
2023-05-15T10:25:47.004Z,82.20
2023-05-15T10:28:52.055Z,82.99
2023-05-15T10:31:55.378Z,79.92
2023-05-15T10:34:59.709Z,80.61
2023-05-15T10:38:05.592Z,81.40
2023-05-15T10:41:17.584Z,82.05
2023-05-15T10:44:22.486Z,82.15
2023-05-15T10:47:27.692Z,79.23
2023-05-15T10:50:30.944Z,76.80
2023-05-15T10:53:36.677Z,75.61
2023-05-15T10:56:40.953Z,77.09
2023-05-15T10:59:45.573Z,77.91
2023-05-15T11:02:48.988Z,78.63
2023-05-15T11:06:10.277Z,76.13
2023-05-15T11:09:23.865Z,78.41
2023-05-15T11:12:58.145Z,79.41
2023-05-15T11:16:00.478Z,79.44
2023-05-15T11:19:04.203Z,79.38
2023-05-15T11:22:18.123Z,79.99
2023-05-15T11:25:31.392Z,80.33
2023-05-15T11:28:43.721Z,80.83
2023-05-15T11:31:46.378Z,80.07
2023-05-15T11:34:52.945Z,79.81
2023-05-15T11:38:03.854Z,79.03
2023-05-15T11:41:19.626Z,80.06
2023-05-15T11:44:24.610Z,78.48
2023-05-15T11:47:29.429Z,79.17
2023-05-15T11:50:34.397Z,79.49
2023-05-15T11:53:39.508Z,79.94
2023-05-15T11:56:44.934Z,80.12
2023-05-15T11:59:47.615Z,80.00
2023-05-15T12:02:51.351Z,81.31
2023-05-15T12:05:58.995Z,81.22
2023-05-15T12:09:04.200Z,81.75
2023-05-15T12:12:09.912Z,81.42
2023-05-15T12:15:14.461Z,81.71
2023-05-15T12:18:17.113Z,81.75
2023-05-15T12:21:19.841Z,81.37
2023-05-15T12:24:22.762Z,81.79
2023-05-15T12:27:27.144Z,80.56
2023-05-15T12:30:32.205Z,80.46
2023-05-15T12:33:35.266Z,80.87
2023-05-15T12:36:37.678Z,81.86
2023-05-15T12:39:55.832Z,81.44
2023-05-15T12:42:58.610Z,82.06
2023-05-15T12:46:03.356Z,82.33
2023-05-15T12:49:06.347Z,82.12
2023-05-15T12:52:14.123Z,82.01
2023-05-15T12:55:23.925Z,81.16
2023-05-15T12:58:26.684Z,81.00
2023-05-15T13:01:29.652Z,81.70
2023-05-15T13:04:33.765Z,82.55
2023-05-15T13:07:36.732Z,81.09
2023-05-15T13:10:39.970Z,82.02
2023-05-15T13:13:46.350Z,81.72
2023-05-15T13:16:49.968Z,81.16
2023-05-15T13:19:52.317Z,82.10
2023-05-15T13:22:55.935Z,82.90
2023-05-15T13:25:58.222Z,82.59
2023-05-15T13:29:02.108Z,82.11
2023-05-15T13:32:04.907Z,83.35
2023-05-15T13:35:09.061Z,82.85
2023-05-15T13:38:12.063Z,83.07
2023-05-15T13:41:15.042Z,83.10
2023-05-15T13:44:17.250Z,82.20
2023-05-15T13:47:20.298Z,81.96
2023-05-15T13:50:24.194Z,81.40
2023-05-15T13:53:27.423Z,81.67
2023-05-15T13:56:32.556Z,80.61
2023-05-15T13:59:35.642Z,81.32
2023-05-15T14:02:38.455Z,79.27
2023-05-15T14:05:41.481Z,81.01
2023-05-15T14:08:43.836Z,81.12
2023-05-15T14:11:46.810Z,81.66
2023-05-15T14:14:49.167Z,81.81
2023-05-15T14:17:52.571Z,82.14
2023-05-15T14:20:55.539Z,82.39
2023-05-15T14:23:58.247Z,81.75
2023-05-15T14:27:04.235Z,82.43
2023-05-15T14:30:41.265Z,80.53
2023-05-15T14:33:44.221Z,78.86
2023-05-15T14:36:47.119Z,79.18
2023-05-15T14:39:53.035Z,79.67
2023-05-15T14:42:57.440Z,81.52
2023-05-15T14:46:03.001Z,82.65
2023-05-15T14:49:05.786Z,82.23
2023-05-15T14:52:10.531Z,82.22
2023-05-15T14:55:13.320Z,82.06
2023-05-15T14:58:16.471Z,81.51
2023-05-15T15:01:19.215Z,82.50
2023-05-15T15:04:22.635Z,83.28
2023-05-15T15:07:33.135Z,83.42
2023-05-15T15:10:37.895Z,83.93
2023-05-15T15:13:40.693Z,84.23
2023-05-15T15:16:46.568Z,84.49
2023-05-15T15:19:49.215Z,83.95
2023-05-15T15:22:52.590Z,83.07
2023-05-15T15:25:55.774Z,83.69
2023-05-15T15:29:01.492Z,83.58
2023-05-15T15:32:08.815Z,83.32
2023-05-15T15:35:13.601Z,82.76
2023-05-15T15:38:16.435Z,83.36
2023-05-15T15:41:21.781Z,83.36
2023-05-15T15:44:24.510Z,83.66
2023-05-15T15:47:32.594Z,83.57
2023-05-15T15:50:35.083Z,83.92
2023-05-15T15:53:38.646Z,84.39
2023-05-15T15:56:43.191Z,85.28
2023-05-15T15:59:46.168Z,86.40
2023-05-15T16:02:49.504Z,86.26
2023-05-15T16:05:53.460Z,86.97
2023-05-15T16:08:55.896Z,86.65
2023-05-15T16:11:59.742Z,86.59
2023-05-15T16:15:19.982Z,86.60
2023-05-15T16:18:24.410Z,86.74
2023-05-15T16:21:27.134Z,86.70
2023-05-15T16:24:30.277Z,86.58
2023-05-15T16:27:32.732Z,87.58
2023-05-15T16:30:48.042Z,88.36
2023-05-15T16:33:52.855Z,88.44
2023-05-15T16:36:57.224Z,88.32
2023-05-15T16:39:59.956Z,87.77
2023-05-15T16:43:03.174Z,87.84
2023-05-15T16:46:05.722Z,87.67
2023-05-15T16:49:09.592Z,87.60
2023-05-15T16:52:15.064Z,87.80
2023-05-15T16:55:22.796Z,87.69
2023-05-15T16:59:00.519Z,87.53
2023-05-15T17:02:02.234Z,87.12
2023-05-15T17:05:19.918Z,87.01
2023-05-15T17:08:30.024Z,87.26
2023-05-15T17:11:32.528Z,86.49
2023-05-15T17:15:03.312Z,86.12
2023-05-15T17:19:01.331Z,86.03
2023-05-15T17:22:14.868Z,86.21
2023-05-15T17:25:20.296Z,86.16
2023-05-15T17:28:23.023Z,85.92
2023-05-15T17:31:25.408Z,85.73
2023-05-15T17:34:28.358Z,85.59
2023-05-15T17:37:30.741Z,85.89
2023-05-15T17:40:33.997Z,86.09
2023-05-15T17:43:37.131Z,86.65
2023-05-15T17:46:40.539Z,86.46
2023-05-15T17:49:42.752Z,86.75
2023-05-15T17:52:46.557Z,87.21
2023-05-15T17:55:49.030Z,87.61
2023-05-15T18:02:37.736Z,87.99
2023-05-15T18:05:42.493Z,88.66
2023-05-15T18:08:45.768Z,89.37
2023-05-15T18:11:48.482Z,90.23
2023-05-15T18:18:35.845Z,91.11
2023-05-15T18:21:38.306Z,91.41
2023-05-15T18:24:41.161Z,91.21
2023-05-15T18:27:52.350Z,91.17
2023-05-15T18:31:06.045Z,90.67
2023-05-15T18:34:11.753Z,90.49
2023-05-15T18:37:17.813Z,90.38
2023-05-15T18:40:20.293Z,89.78
2023-05-15T18:43:23.100Z,89.27
2023-05-15T18:46:28.867Z,89.11
2023-05-15T18:49:38.386Z,88.52
2023-05-15T18:52:50.441Z,88.04
2023-05-15T18:55:55.462Z,87.78
2023-05-15T18:58:57.941Z,87.69
2023-05-15T19:05:34.676Z,88.02
2023-05-15T19:08:48.200Z,88.45
2023-05-15T19:11:52.665Z,88.68
2023-05-15T19:14:59.061Z,88.53
2023-05-15T19:18:01.802Z,88.27
2023-05-15T19:21:05.177Z,87.25
2023-05-15T19:24:08.025Z,86.62
2023-05-15T19:27:10.943Z,85.98
2023-05-15T19:30:14.618Z,85.24
2023-05-15T19:33:20.637Z,85.25
2023-05-15T19:36:23.389Z,85.23
2023-05-15T19:39:26.524Z,85.06
2023-05-15T19:42:29.630Z,84.31
2023-05-15T19:45:32.778Z,84.82
2023-05-15T19:48:35.189Z,84.13
2023-05-15T19:51:41.319Z,84.07
2023-05-15T19:54:44.448Z,83.98
2023-05-15T19:57:47.608Z,83.85
2023-05-15T20:00:52.927Z,83.47
2023-05-15T20:03:55.996Z,83.95
2023-05-15T20:06:59.059Z,84.05
2023-05-15T20:10:04.733Z,84.08
2023-05-15T20:13:09.758Z,83.87
2023-05-15T20:16:14.221Z,83.61
2023-05-15T20:19:17.616Z,84.01
2023-05-15T20:22:20.590Z,83.36
2023-05-15T20:28:33.516Z,82.93
2023-05-15T20:31:40.772Z,82.80
2023-05-15T20:34:48.128Z,82.81
2023-05-15T20:38:41.026Z,82.78
2023-05-15T20:41:51.315Z,82.91
2023-05-15T20:44:54.512Z,82.95
2023-05-15T20:47:58.135Z,83.05
2023-05-15T20:51:00.548Z,83.12
2023-05-15T20:54:04.065Z,83.73
2023-05-15T20:57:07.396Z,83.77
2023-05-15T21:00:12.306Z,83.85
2023-05-15T21:03:15.582Z,83.70
2023-05-15T21:06:18.926Z,83.95
2023-05-15T21:09:21.344Z,83.81
2023-05-15T21:12:24.184Z,84.24
2023-05-15T21:15:26.487Z,84.31
2023-05-15T21:18:29.509Z,84.21
2023-05-15T21:21:35.943Z,84.68
2023-05-15T21:24:38.541Z,84.56
2023-05-15T21:27:42.411Z,84.46
2023-05-15T21:30:45.282Z,84.33
2023-05-15T21:33:47.790Z,84.48
2023-05-15T21:36:51.220Z,84.32
2023-05-15T21:39:54.510Z,84.03
2023-05-15T21:42:57.151Z,84.14
2023-05-15T21:45:59.737Z,84.57
2023-05-15T21:49:02.836Z,84.44
2023-05-15T21:52:05.312Z,84.52
2023-05-15T21:55:09.005Z,84.64
2023-05-15T21:58:11.265Z,84.59
2023-05-15T22:01:16.532Z,84.69
2023-05-15T22:04:18.949Z,84.64
2023-05-15T22:07:22.362Z,84.50
2023-05-15T22:10:28.046Z,84.52
2023-05-15T22:13:37.393Z,84.41
2023-05-15T22:16:39.707Z,84.34
2023-05-15T22:19:42.644Z,84.40
2023-05-15T22:22:46.718Z,84.25
2023-05-15T22:25:50.027Z,84.20
2023-05-15T22:28:58.706Z,84.33
2023-05-15T22:32:01.563Z,84.10
2023-05-15T22:35:04.820Z,84.01
2023-05-15T22:38:08.139Z,83.77
2023-05-15T22:41:10.660Z,83.58
2023-05-15T22:44:14.098Z,83.60
2023-05-15T22:47:17.198Z,83.57
2023-05-15T22:50:19.819Z,83.73
2023-05-15T22:53:22.055Z,83.62
2023-05-15T22:56:25.073Z,83.49
2023-05-15T22:59:27.668Z,83.82
2023-05-15T23:02:31.205Z,83.91
2023-05-15T23:05:33.637Z,83.96
2023-05-15T23:08:36.285Z,83.98
2023-05-15T23:11:50.802Z,83.93
2023-05-15T23:14:53.347Z,84.05
2023-05-15T23:17:55.981Z,83.98
2023-05-15T23:20:59.349Z,83.94
2023-05-15T23:24:01.898Z,83.91
2023-05-15T23:27:05.912Z,84.07
2023-05-15T23:30:08.802Z,84.06
2023-05-15T23:33:12.295Z,83.99
2023-05-15T23:36:14.886Z,84.10
2023-05-15T23:39:18.268Z,84.19
2023-05-15T23:42:20.560Z,84.26
2023-05-15T23:45:23.936Z,84.03
2023-05-15T23:48:26.474Z,83.78
2023-05-15T23:51:29.915Z,83.49
2023-05-15T23:54:33.816Z,83.48
2023-05-15T23:57:37.865Z,83.64
